createdAt,value
2023-04-18T00:01:26.886Z,101342.03
2023-04-18T00:03:54.803Z,101353.75
2023-04-18T00:06:24.174Z,101370.38
2023-04-18T00:08:51.879Z,101378.47
2023-04-18T00:11:19.673Z,101396.53
2023-04-18T00:13:48.267Z,101418.66
2023-04-18T00:16:16.392Z,101433.44
2023-04-18T00:18:44.243Z,101406.88
2023-04-18T00:21:13.487Z,101457.41
2023-04-18T00:23:43.199Z,101481.16
2023-04-18T00:26:10.975Z,101490.38
2023-04-18T00:28:38.964Z,101502.94
2023-04-18T00:31:06.806Z,101514.91
2023-04-18T00:33:35.240Z,101530.22
2023-04-18T00:36:03.382Z,101493.69
2023-04-18T00:38:31.243Z,101500.97
2023-04-18T00:41:00.378Z,101533.03
2023-04-18T00:43:28.450Z,101557.81
2023-04-18T00:45:57.251Z,101568.59
2023-04-18T00:48:25.343Z,101578.84
2023-04-18T00:50:54.163Z,101588.69
2023-04-18T00:53:21.842Z,101593.38
2023-04-18T00:55:49.846Z,101600.53
2023-04-18T00:58:19.057Z,101612.69
2023-04-18T01:00:47.649Z,101624.06
2023-04-18T01:03:15.572Z,101631.19
2023-04-18T01:05:43.453Z,101644.69
2023-04-18T01:08:12.108Z,101662.34
2023-04-18T01:10:40.085Z,101657.00
2023-04-18T01:13:12.441Z,101659.63
2023-04-18T01:15:43.494Z,101680.41
2023-04-18T01:18:11.816Z,101681.47
2023-04-18T01:20:42.549Z,101651.13
2023-04-18T01:23:11.559Z,101684.91
2023-04-18T01:25:41.005Z,101677.94
2023-04-18T01:28:08.928Z,101681.34
2023-04-18T01:30:37.059Z,101673.81
2023-04-18T01:33:06.379Z,101663.44
2023-04-18T01:35:34.648Z,101672.44
2023-04-18T01:38:02.945Z,101674.38
2023-04-18T01:40:31.348Z,101680.22
2023-04-18T01:43:00.664Z,101681.47
2023-04-18T01:45:29.090Z,101675.72
2023-04-18T01:47:56.886Z,101680.22
2023-04-18T01:50:24.722Z,101656.53
2023-04-18T01:52:52.453Z,101691.97
2023-04-18T01:55:20.397Z,101693.44
2023-04-18T01:57:48.167Z,101686.34
2023-04-18T02:00:18.122Z,101649.81
2023-04-18T02:02:46.036Z,101664.41
2023-04-18T02:05:13.926Z,101711.47
2023-04-18T02:07:42.755Z,101710.09
2023-04-18T02:10:11.365Z,101730.34
2023-04-18T02:12:39.558Z,101754.94
2023-04-18T02:15:08.454Z,101753.94
2023-04-18T02:17:37.942Z,101754.38
2023-04-18T02:20:08.320Z,101762.00
2023-04-18T02:22:37.616Z,101745.56
2023-04-18T02:25:05.765Z,101753.22
2023-04-18T02:27:33.909Z,101758.22
2023-04-18T02:30:01.760Z,101763.28
2023-04-18T02:32:29.597Z,101779.56
2023-04-18T02:34:58.757Z,101780.38
2023-04-18T02:37:26.747Z,101793.47
2023-04-18T02:39:54.701Z,101806.91
2023-04-18T02:42:22.488Z,101805.38
2023-04-18T02:44:50.257Z,101809.88
2023-04-18T02:47:17.990Z,101813.97
2023-04-18T02:49:46.089Z,101777.94
2023-04-18T02:52:15.445Z,101816.69
2023-04-18T02:54:43.172Z,101820.13
2023-04-18T02:57:10.888Z,101818.22
2023-04-18T02:59:38.843Z,101792.16
2023-04-18T03:02:06.734Z,101833.53
2023-04-18T03:04:34.466Z,101848.41
2023-04-18T03:07:02.597Z,101841.00
2023-04-18T03:09:31.680Z,101846.06
2023-04-18T03:11:59.399Z,101823.44
2023-04-18T03:14:27.602Z,101845.50
2023-04-18T03:16:55.777Z,101849.84
2023-04-18T03:19:23.494Z,101850.25
2023-04-18T03:21:51.309Z,101842.84
2023-04-18T03:24:19.113Z,101842.84
2023-04-18T03:26:48.230Z,101840.50
2023-04-18T03:29:16.249Z,101843.97
2023-04-18T03:31:44.176Z,101838.22
2023-04-18T03:34:12.627Z,101830.91
2023-04-18T03:36:40.524Z,101823.56
2023-04-18T03:39:08.362Z,101821.78
2023-04-18T03:41:36.039Z,101816.78
2023-04-18T03:44:05.366Z,101784.03
2023-04-18T03:46:33.166Z,101843.78
2023-04-18T03:49:01.017Z,101833.38
2023-04-18T03:51:31.300Z,101836.09
2023-04-18T03:53:59.670Z,101833.03
2023-04-18T03:56:28.020Z,101825.25
2023-04-18T03:58:55.792Z,101825.41
2023-04-18T04:01:24.896Z,101825.78
2023-04-18T04:03:52.811Z,101823.94
2023-04-18T04:06:20.802Z,101819.00
2023-04-18T04:08:48.540Z,101807.94
2023-04-18T04:11:17.857Z,101802.91
2023-04-18T04:13:45.717Z,101797.63
2023-04-18T04:16:13.648Z,101807.50
2023-04-18T04:18:42.894Z,101800.09
2023-04-18T04:21:10.781Z,101796.78
2023-04-18T04:23:38.495Z,101783.81
2023-04-18T04:26:06.649Z,101773.31
2023-04-18T04:28:36.306Z,101767.78
2023-04-18T04:31:06.843Z,101749.09
2023-04-18T04:33:35.930Z,101769.09
2023-04-18T04:36:05.704Z,101760.09
2023-04-18T04:38:33.872Z,101762.38
2023-04-18T04:41:01.728Z,101722.41
2023-04-18T04:43:29.691Z,101751.78
2023-04-18T04:45:57.798Z,101743.88
2023-04-18T04:48:25.747Z,101744.72
2023-04-18T04:50:54.604Z,101747.38
2023-04-18T04:53:24.504Z,101736.94
2023-04-18T04:55:53.100Z,101735.03
2023-04-18T04:58:20.975Z,101732.03
2023-04-18T05:00:50.753Z,101728.47
2023-04-18T05:03:18.657Z,101694.13
2023-04-18T05:05:46.778Z,101720.81
2023-04-18T05:08:14.671Z,101715.81
2023-04-18T05:10:44.425Z,101708.16
2023-04-18T05:13:12.144Z,101710.91
2023-04-18T05:15:40.468Z,101698.06
2023-04-18T05:18:08.562Z,101700.78
2023-04-18T05:20:36.551Z,101694.50
2023-04-18T05:23:04.292Z,101696.59
2023-04-18T05:25:33.605Z,101701.50
2023-04-18T05:28:04.585Z,101696.44
2023-04-18T05:30:32.369Z,101703.44
2023-04-18T05:33:00.185Z,101690.28
2023-04-18T05:35:28.309Z,101698.50
2023-04-18T05:37:56.046Z,101702.31
2023-04-18T05:40:23.877Z,101683.84
2023-04-18T05:42:51.645Z,101684.13
2023-04-18T05:45:20.864Z,101678.25
2023-04-18T05:47:48.580Z,101674.47
2023-04-18T05:50:16.693Z,101695.78
2023-04-18T05:52:44.382Z,101682.00
2023-04-18T05:55:12.291Z,101667.09
2023-04-18T05:57:40.533Z,101670.22
2023-04-18T06:00:11.546Z,101662.19
2023-04-18T06:02:40.888Z,101661.22
2023-04-18T06:05:10.025Z,101665.72
2023-04-18T06:07:38.052Z,101664.78
2023-04-18T06:10:09.261Z,101647.28
2023-04-18T06:12:36.973Z,101645.00
2023-04-18T06:15:05.691Z,101612.47
2023-04-18T06:17:34.398Z,101652.50
2023-04-18T06:20:05.576Z,101652.38
2023-04-18T06:22:33.925Z,101638.81
2023-04-18T06:25:01.661Z,101628.84
2023-04-18T06:27:31.390Z,101641.97
2023-04-18T06:29:59.974Z,101647.16
2023-04-18T06:32:28.107Z,101644.28
2023-04-18T06:34:55.894Z,101651.81
2023-04-18T06:37:25.651Z,101651.97
2023-04-18T06:39:53.485Z,101654.81
2023-04-18T06:42:22.572Z,101653.16
2023-04-18T06:44:50.928Z,101645.50
2023-04-18T06:47:18.899Z,101638.25
2023-04-18T06:49:46.678Z,101652.47
2023-04-18T06:52:14.499Z,101652.47
2023-04-18T06:54:43.610Z,101657.91
2023-04-18T06:57:11.642Z,101642.84
2023-04-18T06:59:41.260Z,101646.31
2023-04-18T07:02:09.139Z,101657.78
2023-04-18T07:04:36.954Z,101678.38
2023-04-18T07:07:05.419Z,101684.34
2023-04-18T07:09:33.184Z,101682.50
2023-04-18T07:12:02.329Z,101690.16
2023-04-18T07:14:31.698Z,101686.91
2023-04-18T07:17:00.946Z,101698.78
2023-04-18T07:19:29.174Z,101710.88
2023-04-18T07:21:56.899Z,101720.56
2023-04-18T07:24:24.694Z,101697.94
2023-04-18T07:26:54.804Z,101754.56
2023-04-18T07:29:24.257Z,101748.78
2023-04-18T07:31:52.273Z,101744.38
2023-04-18T07:34:20.040Z,101768.59
2023-04-18T07:36:47.828Z,101759.75
2023-04-18T07:39:15.664Z,101791.91
2023-04-18T07:41:43.383Z,101796.84
2023-04-18T07:44:11.438Z,101787.16
2023-04-18T07:46:40.965Z,101787.16
2023-04-18T07:49:08.765Z,101802.56
2023-04-18T07:51:36.596Z,101800.09
2023-04-18T07:54:04.327Z,101809.38
2023-04-18T07:56:32.304Z,101794.81
2023-04-18T07:59:00.020Z,101787.88
2023-04-18T08:01:28.150Z,101792.13
2023-04-18T08:04:01.472Z,101826.22
2023-04-18T08:06:30.322Z,101810.59
2023-04-18T08:08:59.005Z,101822.44
2023-04-18T08:11:27.180Z,101827.03
2023-04-18T08:13:54.917Z,101834.88
2023-04-18T08:16:22.756Z,101856.63
2023-04-18T08:18:50.592Z,101865.03
2023-04-18T08:21:20.039Z,101855.28
2023-04-18T08:23:48.036Z,101861.91
2023-04-18T08:26:15.889Z,101844.06
2023-04-18T08:28:46.358Z,101846.31
2023-04-18T08:31:15.169Z,101848.53
2023-04-18T08:33:43.235Z,101878.31
2023-04-18T08:36:12.065Z,101926.44
2023-04-18T08:38:41.283Z,101945.19
2023-04-18T08:41:09.899Z,101999.75
2023-04-18T08:43:38.879Z,102036.13
2023-04-18T08:46:07.947Z,101980.13
2023-04-18T08:48:37.115Z,101980.13
2023-04-18T08:51:06.382Z,101989.13
2023-04-18T08:53:35.309Z,101998.72
2023-04-18T08:56:05.444Z,101992.00
2023-04-18T08:58:34.839Z,101974.81
2023-04-18T09:01:03.308Z,101901.69
2023-04-18T09:03:40.072Z,101923.25
2023-04-18T09:06:14.168Z,101899.22
2023-04-18T09:08:44.526Z,101875.84
2023-04-18T09:11:26.012Z,101900.13
2023-04-18T09:13:56.236Z,101947.81
2023-04-18T09:16:24.876Z,102093.03
2023-04-18T09:19:13.883Z,102120.84
2023-04-18T09:21:44.534Z,102100.06
2023-04-18T09:24:23.806Z,102049.41
2023-04-18T09:26:55.862Z,102054.50
2023-04-18T09:29:24.390Z,102034.19
2023-04-18T09:32:01.136Z,101978.31
2023-04-18T09:34:30.131Z,102020.63
2023-04-18T09:37:08.019Z,102065.47
2023-04-18T09:39:36.430Z,102015.66
2023-04-18T09:42:05.729Z,102160.00
2023-04-18T09:44:33.777Z,102195.63
2023-04-18T09:47:01.922Z,102190.38
2023-04-18T09:49:30.062Z,102265.66
2023-04-18T09:51:57.846Z,102332.00
2023-04-18T09:54:26.830Z,102270.41
2023-04-18T09:56:56.290Z,102269.53
2023-04-18T09:59:38.645Z,102250.84
2023-04-18T10:02:08.816Z,102217.91
2023-04-18T10:04:37.100Z,102199.41
2023-04-18T10:07:05.320Z,102172.50
2023-04-18T10:09:36.725Z,102179.94
2023-04-18T10:12:05.000Z,102166.81
2023-04-18T10:14:35.208Z,102199.38
2023-04-18T10:17:03.162Z,102223.22
2023-04-18T10:19:31.820Z,102225.47
2023-04-18T10:22:00.906Z,102230.59
2023-04-18T10:24:48.083Z,102163.63
2023-04-18T10:27:16.566Z,102141.28
2023-04-18T10:29:50.335Z,102201.16
2023-04-18T10:32:19.018Z,102198.16
2023-04-18T10:34:47.455Z,102256.47
2023-04-18T10:37:16.185Z,102218.88
2023-04-18T10:39:57.311Z,102229.56
2023-04-18T10:42:59.348Z,102217.88
2023-04-18T10:45:31.362Z,102206.16
2023-04-18T10:48:25.087Z,102195.06
2023-04-18T10:51:18.633Z,102178.25
2023-04-18T10:53:51.608Z,102199.25
2023-04-18T10:56:19.531Z,102230.09
2023-04-18T10:58:52.053Z,102244.38
2023-04-18T11:01:31.724Z,102241.72
2023-04-18T11:04:01.495Z,102271.44
2023-04-18T11:06:31.177Z,102225.97
2023-04-18T11:09:11.668Z,102214.84
2023-04-18T11:11:39.485Z,102277.13
2023-04-18T11:14:07.229Z,102243.03
2023-04-18T11:16:37.102Z,102291.50
2023-04-18T11:19:20.209Z,102354.50
2023-04-18T11:21:48.126Z,102270.94
2023-04-18T11:24:23.974Z,102388.34
2023-04-18T11:26:53.634Z,102489.72
2023-04-18T11:29:21.276Z,102543.34
2023-04-18T11:31:55.266Z,102541.81
2023-04-18T11:34:30.147Z,102530.97
2023-04-18T11:36:58.061Z,102505.00
2023-04-18T11:39:25.947Z,102481.28
2023-04-18T11:41:56.094Z,102476.38
2023-04-18T11:44:25.886Z,102390.47
2023-04-18T11:46:55.520Z,102387.03
2023-04-18T11:49:27.850Z,102361.03
2023-04-18T11:51:55.868Z,102366.94
2023-04-18T11:54:40.499Z,102326.22
2023-04-18T11:57:19.236Z,102290.22
2023-04-18T11:59:49.998Z,102320.31
2023-04-18T12:02:19.960Z,102352.31
2023-04-18T12:04:53.291Z,102336.56
2023-04-18T12:07:36.334Z,102332.97
2023-04-18T12:10:05.689Z,102300.59
2023-04-18T12:12:33.547Z,102318.47
2023-04-18T12:15:03.001Z,102329.84
2023-04-18T12:17:32.487Z,102319.78
2023-04-18T12:20:05.499Z,102315.16
2023-04-18T12:22:41.961Z,102298.69
2023-04-18T12:25:27.171Z,102332.97
2023-04-18T12:27:58.346Z,102340.06
2023-04-18T12:30:28.483Z,102367.03
2023-04-18T12:33:04.902Z,102384.69
2023-04-18T12:35:33.379Z,102359.38
2023-04-18T12:38:02.817Z,102307.78
2023-04-18T12:40:31.400Z,102368.91
2023-04-18T12:42:59.706Z,102325.38
2023-04-18T12:45:28.925Z,102322.66
2023-04-18T12:47:58.135Z,102361.47
2023-04-18T12:50:27.861Z,102425.28
2023-04-18T12:52:58.325Z,102426.16
2023-04-18T12:55:27.597Z,102406.69
2023-04-18T12:57:58.384Z,102367.78
2023-04-18T13:00:29.864Z,102351.75
2023-04-18T13:03:01.121Z,102346.59
2023-04-18T13:05:33.539Z,102356.25
2023-04-18T13:10:35.199Z,102362.00
2023-04-18T13:13:03.943Z,102355.78
2023-04-18T13:15:31.654Z,102333.53
2023-04-18T13:18:04.666Z,102338.69
2023-04-18T13:20:33.237Z,102359.97
2023-04-18T13:23:01.082Z,102337.25
2023-04-18T13:25:29.047Z,102341.50
2023-04-18T13:27:58.300Z,102284.41
2023-04-18T13:30:26.475Z,102250.22
2023-04-18T13:32:55.024Z,102286.22
2023-04-18T13:35:24.009Z,102317.31
2023-04-18T13:37:51.843Z,102319.78
2023-04-18T13:40:19.762Z,102301.72
2023-04-18T13:42:47.531Z,102319.72
2023-04-18T13:45:15.922Z,102357.09
2023-04-18T13:47:43.709Z,102320.81
2023-04-18T13:50:11.976Z,102319.22
2023-04-18T13:52:41.106Z,102360.50
2023-04-18T13:55:10.536Z,102447.59
2023-04-18T13:57:38.262Z,102523.44
2023-04-18T14:00:09.212Z,102569.91
2023-04-18T14:02:37.127Z,102534.19
2023-04-18T14:05:05.740Z,102520.09
2023-04-18T14:07:33.629Z,102502.94
2023-04-18T14:10:02.744Z,102510.81
2023-04-18T14:12:31.336Z,102540.47
2023-04-18T14:14:59.128Z,102557.28
2023-04-18T14:17:27.279Z,102487.25
2023-04-18T14:19:55.083Z,102522.34
2023-04-18T14:22:22.853Z,102555.16
2023-04-18T14:24:52.345Z,102582.56
2023-04-18T14:27:21.495Z,102585.00
2023-04-18T14:29:49.473Z,102598.59
2023-04-18T14:32:17.247Z,102556.91
2023-04-18T14:34:45.177Z,102551.00
2023-04-18T14:37:13.163Z,102540.44
2023-04-18T14:39:41.892Z,102522.06
2023-04-18T14:42:09.661Z,102550.72
2023-04-18T14:44:38.865Z,102537.94
2023-04-18T14:47:06.698Z,102532.81
2023-04-18T14:49:34.614Z,102454.31
2023-04-18T14:52:02.338Z,102482.41
2023-04-18T14:54:32.078Z,102447.03
2023-04-18T14:57:01.519Z,102434.09
2023-04-18T14:59:29.216Z,102412.84
2023-04-18T15:02:09.357Z,102443.72
2023-04-18T15:07:59.522Z,102398.34
2023-04-18T15:10:56.445Z,102465.84
2023-04-18T15:13:25.285Z,102535.75
2023-04-18T15:15:54.345Z,102565.25
2023-04-18T15:18:24.149Z,102527.34
2023-04-18T15:20:53.715Z,102511.22
2023-04-18T15:23:21.465Z,102497.84
2023-04-18T15:25:49.423Z,102488.81
2023-04-18T15:28:18.279Z,102475.34
2023-04-18T15:30:47.050Z,102454.19
2023-04-18T15:33:15.960Z,102461.16
2023-04-18T15:35:45.091Z,102467.59
2023-04-18T15:38:12.936Z,102478.41
2023-04-18T15:40:40.896Z,102452.38
2023-04-18T15:43:08.686Z,102468.38
2023-04-18T15:45:36.961Z,102461.66
2023-04-18T15:48:05.001Z,102500.44
2023-04-18T15:50:33.818Z,102505.25
2023-04-18T15:53:03.500Z,102527.44
2023-04-18T15:55:31.329Z,102501.28
2023-04-18T15:57:59.074Z,102492.72
2023-04-18T16:00:27.495Z,102526.56
2023-04-18T16:02:55.198Z,102490.09
2023-04-18T16:05:23.186Z,102504.03
2023-04-18T16:07:52.373Z,102517.09
2023-04-18T16:10:21.855Z,102505.28
2023-04-18T16:12:49.621Z,102521.53
2023-04-18T16:15:17.453Z,102528.97
2023-04-18T16:17:45.482Z,102516.03
2023-04-18T16:20:13.784Z,102507.38
2023-04-18T16:22:41.562Z,102505.09
2023-04-18T16:25:10.636Z,102503.38
2023-04-18T16:27:39.809Z,102492.66
2023-04-18T16:30:10.003Z,102470.94
2023-04-18T16:32:38.369Z,102473.91
2023-04-18T16:35:07.880Z,102469.59
2023-04-18T16:37:35.658Z,102466.88
2023-04-18T16:40:05.763Z,102457.13
2023-04-18T16:42:33.574Z,102453.84
2023-04-18T16:45:04.204Z,102441.72
2023-04-18T16:47:32.414Z,102457.69
2023-04-18T16:50:00.842Z,102454.38
2023-04-18T16:52:29.183Z,102442.03
2023-04-18T16:54:56.950Z,102449.84
2023-04-18T16:57:24.776Z,102410.00
2023-04-18T16:59:52.569Z,102417.53
2023-04-18T17:02:21.796Z,102384.28
2023-04-18T17:04:49.912Z,102395.25
2023-04-18T17:07:17.780Z,102367.63
2023-04-18T17:09:45.596Z,102361.59
2023-04-18T17:12:13.422Z,102410.19
2023-04-18T17:14:41.198Z,102390.31
2023-04-18T17:17:09.016Z,102387.19
2023-04-18T17:19:38.258Z,102377.97
2023-04-18T17:22:06.174Z,102399.84
2023-04-18T17:24:34.036Z,102390.28
2023-04-18T17:27:01.765Z,102384.41
2023-04-18T17:29:29.505Z,102390.97
2023-04-18T17:31:57.395Z,102363.44
2023-04-18T17:34:25.589Z,102344.22
2023-04-18T17:36:54.850Z,102376.28
2023-04-18T17:39:22.765Z,102357.94
2023-04-18T17:41:50.950Z,102366.28
2023-04-18T17:44:18.893Z,102336.25
2023-04-18T17:46:48.226Z,102338.88
2023-04-18T17:49:16.861Z,102308.19
2023-04-18T17:51:44.599Z,102311.47
2023-04-18T17:54:14.114Z,102299.16
2023-04-18T17:56:42.007Z,102313.72
2023-04-18T17:59:09.894Z,102317.84
2023-04-18T18:01:38.701Z,102296.84
2023-04-18T18:04:06.923Z,102298.31
2023-04-18T18:06:34.887Z,102296.84
2023-04-18T18:09:02.920Z,102206.41
2023-04-18T18:11:32.096Z,102267.00
2023-04-18T18:14:00.492Z,102236.66
2023-04-18T18:16:28.639Z,102236.50
2023-04-18T18:18:56.727Z,102209.75
2023-04-18T18:21:24.456Z,102192.88
2023-04-18T18:23:52.458Z,102180.06
2023-04-18T18:26:20.488Z,102185.97
2023-04-18T18:28:50.323Z,102178.44
2023-04-18T18:31:22.674Z,102172.03
2023-04-18T18:33:50.573Z,102163.19
2023-04-18T18:36:18.927Z,102158.03
2023-04-18T18:38:47.475Z,102175.09
2023-04-18T18:41:15.862Z,102150.19
2023-04-18T18:43:44.299Z,102159.84
2023-04-18T18:46:16.035Z,102149.97
2023-04-18T18:48:44.446Z,102149.16
2023-04-18T18:51:21.581Z,102154.69
2023-04-18T18:53:49.858Z,102137.97
2023-04-18T18:56:18.440Z,102138.94
2023-04-18T18:58:46.559Z,102133.06
2023-04-18T19:01:16.089Z,102134.31
2023-04-18T19:03:44.014Z,102074.97
2023-04-18T19:06:12.212Z,102117.59
2023-04-18T19:08:40.283Z,102112.66
2023-04-18T19:11:09.019Z,102089.38
2023-04-18T19:13:36.568Z,102094.91
2023-04-18T19:16:06.651Z,102063.97
2023-04-18T19:18:36.953Z,102047.13
2023-04-18T19:21:05.803Z,102040.03
2023-04-18T19:23:33.751Z,102021.53
2023-04-18T19:26:01.568Z,102015.31
2023-04-18T19:28:29.541Z,101998.25
2023-04-18T19:30:57.560Z,101986.13
2023-04-18T19:33:27.487Z,101978.09
2023-04-18T19:35:56.754Z,101968.94
2023-04-18T19:38:24.998Z,101977.38
2023-04-18T19:40:52.960Z,101947.94
2023-04-18T19:43:22.951Z,101939.94
2023-04-18T19:45:55.013Z,101943.53
2023-04-18T19:48:23.592Z,101896.31
2023-04-18T19:50:52.633Z,101914.34
2023-04-18T19:53:23.578Z,101902.56
2023-04-18T19:55:53.740Z,101890.75
2023-04-18T19:58:46.916Z,101834.75
2023-04-18T20:01:16.481Z,101857.78
2023-04-18T20:03:44.717Z,101837.84
2023-04-18T20:06:12.901Z,101878.25
2023-04-18T20:08:42.627Z,101881.66
2023-04-18T20:11:14.633Z,101877.41
2023-04-18T20:13:42.595Z,101870.50
2023-04-18T20:16:11.208Z,101869.41
2023-04-18T20:18:41.568Z,101839.47
2023-04-18T20:21:11.411Z,101870.44
2023-04-18T20:23:40.471Z,101875.78
2023-04-18T20:26:10.374Z,101860.06
2023-04-18T20:28:38.711Z,101857.19
2023-04-18T20:31:18.367Z,101868.25
2023-04-18T20:33:46.494Z,101852.53
2023-04-18T20:36:14.517Z,101849.88
2023-04-18T20:38:44.362Z,101853.47
2023-04-18T20:41:18.609Z,101804.81
2023-04-18T20:43:46.895Z,101841.31
2023-04-18T20:46:16.238Z,101829.25
2023-04-18T20:48:44.459Z,101826.78
2023-04-18T20:51:12.380Z,101824.41
2023-04-18T20:53:40.071Z,101817.84
2023-04-18T20:56:07.945Z,101796.91
2023-04-18T20:58:37.127Z,101801.22
2023-04-18T21:01:05.208Z,101800.00
2023-04-18T21:03:33.246Z,101787.06
2023-04-18T21:06:01.261Z,101798.31
2023-04-18T21:08:29.131Z,101789.75
2023-04-18T21:10:56.858Z,101789.66
2023-04-18T21:13:24.722Z,101783.88
2023-04-18T21:15:53.823Z,101782.22
2023-04-18T21:18:21.524Z,101779.75
2023-04-18T21:20:49.616Z,101784.78
2023-04-18T21:23:17.502Z,101772.03
2023-04-18T21:25:45.581Z,101767.78
2023-04-18T21:28:13.574Z,101772.78
2023-04-18T21:30:41.804Z,101771.81
2023-04-18T21:33:11.571Z,101770.31
2023-04-18T21:35:42.617Z,101763.09
2023-04-18T21:38:10.737Z,101755.41
2023-04-18T21:40:38.606Z,101748.06
2023-04-18T21:43:06.891Z,101746.19
2023-04-18T21:45:35.242Z,101731.22
2023-04-18T21:48:03.530Z,101733.81
2023-04-18T21:50:33.334Z,101727.25
2023-04-18T21:53:01.083Z,101720.25
2023-04-18T21:55:30.752Z,101723.34
2023-04-18T21:57:59.057Z,101696.81
2023-04-18T22:00:27.881Z,101689.69
2023-04-18T22:02:55.751Z,101649.22
2023-04-18T22:05:24.081Z,101686.25
2023-04-18T22:07:58.124Z,101675.69
2023-04-18T22:10:27.489Z,101681.63
2023-04-18T22:12:56.182Z,101671.50
2023-04-18T22:15:24.328Z,101668.88
2023-04-18T22:17:52.329Z,101665.53
2023-04-18T22:20:20.341Z,101658.53
2023-04-18T22:22:48.395Z,101646.13
2023-04-18T22:25:17.939Z,101644.63
2023-04-18T22:27:46.532Z,101635.38
2023-04-18T22:30:15.511Z,101636.19
2023-04-18T22:32:45.620Z,101642.03
2023-04-18T22:35:16.794Z,101629.81
2023-04-18T22:37:45.246Z,101621.75
2023-04-18T22:40:16.538Z,101619.78
2023-04-18T22:42:46.346Z,101627.88
2023-04-18T22:45:14.758Z,101608.81
2023-04-18T22:47:43.075Z,101609.78
2023-04-18T22:50:11.551Z,101602.06
2023-04-18T22:52:39.785Z,101600.78
2023-04-18T22:55:08.494Z,101597.53
2023-04-18T22:57:36.484Z,101593.72
2023-04-18T23:00:07.460Z,101566.72
2023-04-18T23:02:35.620Z,101565.72
2023-04-18T23:05:04.108Z,101589.19
2023-04-18T23:07:32.031Z,101606.59
2023-04-18T23:10:00.258Z,101605.91
2023-04-18T23:12:30.920Z,101607.19
2023-04-18T23:14:59.161Z,101598.16
2023-04-18T23:17:28.755Z,101587.22
2023-04-18T23:19:56.455Z,101557.09
2023-04-18T23:22:24.741Z,101538.34
2023-04-18T23:24:52.558Z,101574.13
2023-04-18T23:27:20.342Z,101554.13
2023-04-18T23:29:48.522Z,101560.00
2023-04-18T23:32:16.323Z,101560.31
2023-04-18T23:34:46.113Z,101544.81
2023-04-18T23:37:13.866Z,101546.25
2023-04-18T23:39:41.634Z,101539.41
2023-04-18T23:42:09.662Z,101508.69
2023-04-18T23:44:37.500Z,101528.59
2023-04-18T23:47:05.325Z,101519.03
2023-04-18T23:49:33.050Z,101511.34
2023-04-18T23:52:02.885Z,101500.59
2023-04-18T23:54:31.191Z,101499.91
2023-04-18T23:56:58.936Z,101491.69
2023-04-18T23:59:27.024Z,101455.69
